Time;durP1;ratioP1;P1;durP2;ratioP2;P2;SDS_P1;SDS_P2;PMS_P1;PMS_P2;Temp;Humidity;BMP_temperature;BMP_pressure;BME280_temperature;BME280_humidity;BME280_pressure;Samples;Min_cycle;Max_cycle;Signal;HPM_P1;HPM_P2
2022/07/05 00:00:17;;;;;;;1.02;0.93;;;;;20.80;101992.00;;;;5034122;28;20193;-80
2022/07/05 00:02:44;;;;;;;1.23;1.13;;;;;20.80;101997.00;;;;5034047;28;20199;-80
2022/07/05 00:05:12;;;;;;;2.10;1.40;;;;;20.80;101993.00;;;;5038233;28;20200;-80
2022/07/05 00:07:39;;;;;;;2.25;1.73;;;;;20.80;102006.00;;;;5043193;28;20206;-80
2022/07/05 00:10:07;;;;;;;1.98;0.93;;;;;20.70;102002.00;;;;5052228;28;20231;-80
2022/07/05 00:12:35;;;;;;;3.60;1.20;;;;;20.70;101998.00;;;;5047776;28;20196;-80
2022/07/05 00:15:04;;;;;;;1.90;1.00;;;;;20.70;101999.00;;;;5033119;28;20187;-79
2022/07/05 00:17:31;;;;;;;1.50;1.13;;;;;20.70;102001.00;;;;5037833;28;20196;-79
2022/07/05 00:19:58;;;;;;;1.58;1.00;;;;;20.60;101997.00;;;;5050150;28;20716;-79
2022/07/05 00:22:26;;;;;;;1.38;1.05;;;;;20.60;102008.00;;;;5031900;28;20675;-79
2022/07/05 00:24:53;;;;;;;1.77;1.33;;;;;20.60;102006.00;;;;5033915;28;20207;-80
2022/07/05 00:27:21;;;;;;;1.50;1.40;;;;;20.60;102005.00;;;;5038025;28;20658;-79
2022/07/05 00:29:48;;;;;;;1.15;1.05;;;;;20.60;102001.00;;;;5031204;28;20223;-80
2022/07/05 00:32:16;;;;;;;1.75;1.02;;;;;20.50;102002.00;;;;5033153;28;20591;-80
2022/07/05 00:34:44;;;;;;;4.60;1.02;;;;;20.50;101997.00;;;;5044958;28;20702;-80
2022/07/05 00:37:12;;;;;;;1.55;1.27;;;;;20.50;101991.00;;;;5045684;28;20200;-80
2022/07/05 00:39:39;;;;;;;1.20;1.10;;;;;20.50;101990.00;;;;5049267;28;20195;-80
2022/07/05 00:42:06;;;;;;;1.80;1.60;;;;;20.40;101998.00;;;;5033816;28;20211;-80
2022/07/05 00:44:35;;;;;;;1.40;1.27;;;;;20.40;102001.00;;;;5039800;28;20209;-80
2022/07/05 00:47:04;;;;;;;1.20;1.10;;;;;20.40;101999.00;;;;5031775;28;20200;-80
2022/07/05 00:49:33;;;;;;;3.05;1.40;;;;;20.30;101999.00;;;;5033045;28;20216;-80
2022/07/05 00:52:01;;;;;;;1.50;1.35;;;;;20.30;101994.00;;;;5033671;28;20216;-81
2022/07/05 00:54:29;;;;;;;1.10;1.00;;;;;20.30;101988.00;;;;5029843;28;20228;-80
2022/07/05 00:56:57;;;;;;;1.48;1.20;;;;;20.30;101992.00;;;;5035099;28;20254;-80
2022/07/05 00:59:24;;;;;;;1.52;1.35;;;;;20.20;101989.00;;;;5030684;28;21349;-80
2022/07/05 01:01:51;;;;;;;1.30;1.20;;;;;20.20;101987.00;;;;5030774;28;20191;-80
2022/07/05 01:04:19;;;;;;;2.35;1.40;;;;;20.20;101992.00;;;;5028748;28;20192;-80
2022/07/05 01:06:50;;;;;;;1.27;1.17;;;;;20.10;101989.00;;;;5031020;28;20211;-80
2022/07/05 01:09:19;;;;;;;2.40;1.17;;;;;20.10;101991.00;;;;5036588;28;20219;-80
2022/07/05 01:11:47;;;;;;;1.30;1.20;;;;;20.10;101992.00;;;;5035388;28;20196;-80
2022/07/05 01:14:18;;;;;;;2.60;1.70;;;;;20.10;101995.00;;;;5032665;28;20200;-80
2022/07/05 01:16:46;;;;;;;1.52;1.00;;;;;20.10;101994.00;;;;5031754;28;20223;-80
2022/07/05 01:19:14;;;;;;;1.40;1.02;;;;;20.10;101989.00;;;;5042563;28;20196;-80
2022/07/05 01:21:43;;;;;;;1.48;1.38;;;;;20.10;101997.00;;;;5030554;28;20207;-80
2022/07/05 01:24:16;;;;;;;1.50;1.25;;;;;20.00;101989.00;;;;5045488;28;20214;-81
2022/07/05 01:26:46;;;;;;;2.50;1.30;;;;;20.00;102000.00;;;;5030684;28;20212;-81
2022/07/05 01:29:13;;;;;;;1.40;1.15;;;;;20.00;101989.00;;;;5034224;28;20196;-81
2022/07/05 01:31:42;;;;;;;1.77;1.00;;;;;20.00;101977.00;;;;5041691;28;20203;-81
2022/07/05 01:34:09;;;;;;;2.17;1.30;;;;;19.90;101978.00;;;;5036024;28;20215;-80
2022/07/05 01:36:37;;;;;;;1.95;1.35;;;;;19.90;101978.00;;;;5032362;28;20199;-79
2022/07/05 01:39:07;;;;;;;2.05;1.30;;;;;19.90;101984.00;;;;5030126;28;20196;-81
2022/07/05 01:41:35;;;;;;;1.80;1.20;;;;;19.80;101982.00;;;;5030138;28;20207;-80
2022/07/05 01:44:04;;;;;;;1.33;1.17;;;;;19.80;101989.00;;;;5037907;28;20196;-80
2022/07/05 01:46:35;;;;;;;2.63;1.13;;;;;19.80;101993.00;;;;5038026;28;20203;-80
2022/07/05 01:49:07;;;;;;;1.35;1.00;;;;;19.80;101988.00;;;;5036905;28;20302;-80
2022/07/05 01:51:40;;;;;;;1.27;1.17;;;;;19.80;101987.00;;;;5032282;28;20223;-80
2022/07/05 01:54:07;;;;;;;1.15;1.05;;;;;19.70;101984.00;;;;5034401;28;20227;-80
2022/07/05 01:56:38;;;;;;;1.40;1.23;;;;;19.70;101980.00;;;;5037807;28;20203;-80
2022/07/05 01:59:06;;;;;;;1.20;1.10;;;;;19.70;101980.00;;;;5048459;28;20192;-80
2022/07/05 02:01:35;;;;;;;2.58;1.40;;;;;19.70;101986.00;;;;5042832;28;20196;-80
2022/07/05 02:04:04;;;;;;;1.48;1.20;;;;;19.70;101978.00;;;;5037194;28;20227;-80
2022/07/05 02:06:33;;;;;;;2.33;1.20;;;;;19.70;101980.00;;;;5041731;28;20200;-80
2022/07/05 02:09:00;;;;;;;1.60;1.20;;;;;19.70;101981.00;;;;5039498;28;20204;-80
2022/07/05 02:11:28;;;;;;;1.85;1.52;;;;;19.60;101987.00;;;;5034924;28;20220;-80
2022/07/05 02:13:58;;;;;;;1.33;1.20;;;;;19.60;101982.00;;;;5033216;28;20198;-80
2022/07/05 02:16:26;;;;;;;1.27;1.10;;;;;19.60;101986.00;;;;5027234;28;20199;-80
2022/07/05 02:18:53;;;;;;;4.13;1.65;;;;;19.60;101985.00;;;;5029527;28;20577;-80
2022/07/05 02:21:21;;;;;;;1.63;1.10;;;;;19.60;101988.00;;;;5030306;28;20576;-80
2022/07/05 02:23:48;;;;;;;1.52;1.20;;;;;19.60;101987.00;;;;5034411;28;20200;-79
2022/07/05 02:26:16;;;;;;;2.17;1.63;;;;;19.60;101989.00;;;;5037965;28;20204;-80
2022/07/05 02:28:43;;;;;;;2.00;1.30;;;;;19.60;101984.00;;;;5029491;28;20523;-80
2022/07/05 02:31:12;;;;;;;1.98;1.65;;;;;19.60;101986.00;;;;5035296;28;20274;-80
2022/07/05 02:33:39;;;;;;;2.33;1.65;;;;;19.60;101979.00;;;;5036755;28;20222;-80
2022/07/05 02:36:08;;;;;;;1.63;1.48;;;;;19.60;101987.00;;;;5040507;28;20204;-80
2022/07/05 02:38:36;;;;;;;2.05;1.17;;;;;19.70;101980.00;;;;5029599;28;20258;-80
2022/07/05 02:41:06;;;;;;;3.50;1.80;;;;;19.60;101986.00;;;;5027849;28;20279;-79
2022/07/05 02:43:34;;;;;;;4.28;1.52;;;;;19.70;101987.00;;;;5047295;28;20223;-80
2022/07/05 02:46:02;;;;;;;2.15;1.40;;;;;19.70;101984.00;;;;5045481;28;20208;-81
2022/07/05 02:48:31;;;;;;;1.88;1.50;;;;;19.70;101977.00;;;;5035776;28;20196;-80
2022/07/05 02:50:58;;;;;;;2.13;1.55;;;;;19.70;101983.00;;;;5028284;28;20227;-80
2022/07/05 02:53:26;;;;;;;2.25;1.95;;;;;19.60;101983.00;;;;5031780;28;20219;-80
2022/07/05 02:55:53;;;;;;;2.13;1.55;;;;;19.70;101988.00;;;;5034143;28;20228;-80
2022/07/05 02:58:21;;;;;;;2.33;2.00;;;;;19.70;101991.00;;;;5027479;28;20212;-80
2022/07/05 03:00:49;;;;;;;2.58;1.38;;;;;19.70;101996.00;;;;5029125;28;20204;-80
2022/07/05 03:03:17;;;;;;;1.40;1.23;;;;;19.70;101995.00;;;;5028113;28;20196;-80
2022/07/05 03:05:45;;;;;;;2.00;1.80;;;;;19.60;101999.00;;;;5028997;28;20200;-80
2022/07/05 03:08:13;;;;;;;1.92;1.38;;;;;19.70;101998.00;;;;5026127;28;20735;-80
2022/07/05 03:10:40;;;;;;;1.85;1.70;;;;;19.70;101997.00;;;;5032070;28;20255;-80
2022/07/05 03:13:08;;;;;;;2.13;1.65;;;;;19.70;102001.00;;;;5039478;28;20669;-80
2022/07/05 03:15:35;;;;;;;2.30;1.80;;;;;19.70;101999.00;;;;5038273;28;20203;-80
2022/07/05 03:18:02;;;;;;;4.45;1.85;;;;;19.70;102003.00;;;;5031323;28;20205;-81
2022/07/05 03:20:30;;;;;;;1.80;1.70;;;;;19.70;102007.00;;;;5040117;28;20683;-80
2022/07/05 03:22:59;;;;;;;1.70;1.60;;;;;19.60;102005.00;;;;5034750;28;20196;-81
2022/07/05 03:25:27;;;;;;;2.70;1.52;;;;;19.70;101999.00;;;;5034762;28;20573;-81
2022/07/05 03:27:54;;;;;;;2.35;1.70;;;;;19.70;102005.00;;;;5044856;28;20202;-81
2022/07/05 03:30:22;;;;;;;2.30;1.35;;;;;19.70;102008.00;;;;5027878;28;20224;-81
2022/07/05 03:32:50;;;;;;;2.35;1.52;;;;;19.70;102007.00;;;;5027480;28;20577;-81
2022/07/05 03:35:17;;;;;;;2.30;1.42;;;;;19.70;102008.00;;;;5033270;28;20713;-82
2022/07/05 03:37:45;;;;;;;2.58;1.80;;;;;19.70;102007.00;;;;5038312;28;20196;-81
2022/07/05 03:40:13;;;;;;;1.92;1.60;;;;;19.70;102017.00;;;;5036601;28;20211;-81
2022/07/05 03:42:41;;;;;;;1.67;1.55;;;;;19.70;102011.00;;;;5028747;28;20211;-81
2022/07/05 03:45:09;;;;;;;2.78;1.80;;;;;19.70;102011.00;;;;5028521;28;20200;-81
2022/07/05 03:47:37;;;;;;;3.10;1.90;;;;;19.70;102010.00;;;;5027433;28;20196;-81
2022/07/05 03:50:05;;;;;;;1.77;1.60;;;;;19.70;102005.00;;;;5038090;28;20203;-81
2022/07/05 03:52:32;;;;;;;3.00;1.67;;;;;19.70;102011.00;;;;5048083;28;20187;-81
2022/07/05 03:54:59;;;;;;;2.28;1.45;;;;;19.70;102011.00;;;;5027968;28;20240;-81
2022/07/05 03:57:28;;;;;;;1.70;1.60;;;;;19.70;102011.00;;;;5027806;28;20204;-82
2022/07/05 03:59:56;;;;;;;2.25;1.83;;;;;19.70;102014.00;;;;5033596;28;20196;-81
2022/07/05 04:02:23;;;;;;;1.83;1.40;;;;;19.70;102017.00;;;;5028739;28;20196;-81
2022/07/05 04:04:50;;;;;;;2.38;1.73;;;;;19.70;102014.00;;;;5028277;28;20196;-81
2022/07/05 04:07:18;;;;;;;2.47;1.58;;;;;19.70;102015.00;;;;5027153;28;20590;-81
2022/07/05 04:09:45;;;;;;;1.75;1.65;;;;;19.70;102016.00;;;;5028678;28;20204;-81
2022/07/05 04:12:12;;;;;;;2.00;1.73;;;;;19.70;102021.00;;;;5031506;28;20223;-81
2022/07/05 04:14:41;;;;;;;3.10;1.70;;;;;19.70;102020.00;;;;5031208;28;20196;-81
2022/07/05 04:17:08;;;;;;;2.10;1.60;;;;;19.70;102024.00;;;;5027495;28;20207;-80
2022/07/05 04:19:35;;;;;;;1.83;1.67;;;;;19.70;102016.00;;;;5030488;28;20724;-81
2022/07/05 04:22:03;;;;;;;3.75;1.60;;;;;19.70;102022.00;;;;5035964;28;20207;-81
2022/07/05 04:24:30;;;;;;;1.92;1.77;;;;;19.70;102016.00;;;;5030393;28;20192;-80
2022/07/05 04:26:58;;;;;;;3.90;1.80;;;;;19.80;102018.00;;;;5035280;28;20217;-80
2022/07/05 04:29:25;;;;;;;2.42;1.65;;;;;19.80;102017.00;;;;5033524;28;20196;-81
2022/07/05 04:31:53;;;;;;;3.75;1.58;;;;;19.80;102023.00;;;;5031352;28;20220;-80
2022/07/05 04:34:21;;;;;;;2.33;1.73;;;;;19.80;102020.00;;;;5027969;28;20228;-80
2022/07/05 04:36:48;;;;;;;1.95;1.73;;;;;19.90;102016.00;;;;5028289;28;20205;-81
2022/07/05 04:39:15;;;;;;;2.20;1.80;;;;;19.90;102026.00;;;;5047237;28;20191;-81
2022/07/05 04:41:43;;;;;;;1.92;1.70;;;;;19.90;102035.00;;;;5047705;28;20207;-81
2022/07/05 04:44:10;;;;;;;2.58;2.00;;;;;19.90;102027.00;;;;5032005;28;20203;-81
2022/07/05 04:46:37;;;;;;;1.80;1.65;;;;;20.00;102024.00;;;;5032474;28;20199;-80
2022/07/05 04:49:06;;;;;;;2.42;2.03;;;;;20.00;102030.00;;;;5034691;28;20187;-81
2022/07/05 04:51:33;;;;;;;1.88;1.70;;;;;20.00;102032.00;;;;5028492;28;20228;-81
2022/07/05 04:54:00;;;;;;;2.78;2.25;;;;;20.00;102031.00;;;;5031492;28;20235;-80
2022/07/05 04:56:28;;;;;;;3.72;2.00;;;;;20.10;102040.00;;;;5037883;28;20202;-81
2022/07/05 04:58:55;;;;;;;2.58;2.20;;;;;20.10;102039.00;;;;5043729;28;20208;-80
2022/07/05 05:01:22;;;;;;;3.08;2.53;;;;;20.10;102038.00;;;;5030374;28;20197;-81
2022/07/05 05:03:50;;;;;;;3.58;2.40;;;;;20.20;102037.00;;;;5039983;28;20196;-81
2022/07/05 05:06:21;;;;;;;2.80;2.28;;;;;20.20;102037.00;;;;5030483;28;20212;-80
2022/07/05 05:08:48;;;;;;;4.65;2.90;;;;;20.20;102043.00;;;;5032670;28;20204;-81
2022/07/05 05:11:16;;;;;;;3.10;2.80;;;;;20.30;102044.00;;;;5040138;28;20219;-81
2022/07/05 05:13:45;;;;;;;3.35;3.05;;;;;20.30;102033.00;;;;5041427;28;20203;-79
2022/07/05 05:16:12;;;;;;;3.60;3.10;;;;;20.40;102029.00;;;;5047870;28;20228;-79
2022/07/05 05:18:40;;;;;;;3.85;2.72;;;;;20.40;102037.00;;;;5030895;28;20208;-79
2022/07/05 05:21:08;;;;;;;2.92;2.45;;;;;20.50;102035.00;;;;5040887;28;20200;-79
2022/07/05 05:23:37;;;;;;;6.72;3.15;;;;;20.60;102037.00;;;;5037882;28;20192;-79
2022/07/05 05:26:04;;;;;;;3.20;2.90;;;;;20.60;102038.00;;;;5030752;28;20203;-80
2022/07/05 05:28:31;;;;;;;5.55;3.17;;;;;20.70;102034.00;;;;5038995;28;20211;-81
2022/07/05 05:30:59;;;;;;;3.88;3.42;;;;;20.80;102032.00;;;;5037740;28;20226;-79
2022/07/05 05:33:26;;;;;;;4.38;3.10;;;;;20.90;102034.00;;;;5043872;28;20196;-80
2022/07/05 05:35:53;;;;;;;4.85;3.17;;;;;21.00;102044.00;;;;5034746;28;20219;-79
2022/07/05 05:38:21;;;;;;;3.13;2.80;;;;;21.10;102044.00;;;;5037416;28;20195;-81
2022/07/05 05:40:49;;;;;;;3.97;3.03;;;;;21.10;102055.00;;;;5042881;28;20200;-79
2022/07/05 05:43:16;;;;;;;4.10;3.65;;;;;21.20;102049.00;;;;5032042;28;20215;-79
2022/07/05 05:45:44;;;;;;;4.88;3.35;;;;;21.30;102049.00;;;;5046221;28;20207;-81
2022/07/05 05:48:11;;;;;;;4.90;4.07;;;;;21.40;102057.00;;;;5049362;28;20207;-79
2022/07/05 05:50:39;;;;;;;5.45;4.63;;;;;21.50;102052.00;;;;5039587;28;20212;-80
2022/07/05 05:53:07;;;;;;;5.00;4.05;;;;;21.60;102044.00;;;;5031768;28;20710;-80
2022/07/05 05:55:35;;;;;;;5.55;4.70;;;;;21.70;102051.00;;;;5031885;28;20223;-80
2022/07/05 05:58:14;;;;;;;6.30;3.92;;;;;21.70;102054.00;;;;5049918;28;20342;-80
2022/07/05 06:00:41;;;;;;;4.80;3.80;;;;;21.90;102054.00;;;;5049471;28;20253;-78
2022/07/05 06:03:09;;;;;;;4.78;4.28;;;;;22.00;102056.00;;;;5044997;28;20227;-79
2022/07/05 06:05:36;;;;;;;5.22;3.97;;;;;22.00;102055.00;;;;5032661;28;20215;-79
2022/07/05 06:08:04;;;;;;;6.32;3.80;;;;;22.10;102058.00;;;;5029856;28;20287;-78
2022/07/05 06:10:33;;;;;;;4.45;3.85;;;;;22.20;102062.00;;;;5029682;28;20200;-78
2022/07/05 06:13:06;;;;;;;4.47;4.05;;;;;22.30;102068.00;;;;5032013;28;20215;-78
2022/07/05 06:15:36;;;;;;;4.68;4.28;;;;;22.40;102066.00;;;;5028531;28;20203;-78
2022/07/05 06:18:04;;;;;;;4.20;3.80;;;;;22.50;102072.00;;;;5036379;28;20206;-78
2022/07/05 06:20:33;;;;;;;4.90;4.30;;;;;22.60;102075.00;;;;5035485;28;20196;-79
2022/07/05 06:23:02;;;;;;;5.55;4.25;;;;;22.70;102086.00;;;;5039066;28;20558;-79
2022/07/05 06:25:30;;;;;;;4.32;3.92;;;;;22.80;102081.00;;;;5041586;28;20212;-78
2022/07/05 06:28:01;;;;;;;4.93;3.95;;;;;22.90;102089.00;;;;5036974;28;20192;-78
2022/07/05 06:30:31;;;;;;;4.65;4.15;;;;;23.00;102083.00;;;;5032025;28;20192;-78
2022/07/05 06:33:00;;;;;;;5.70;4.25;;;;;23.10;102088.00;;;;5035731;28;20234;-79
2022/07/05 06:35:28;;;;;;;4.70;4.30;;;;;23.20;102094.00;;;;5035567;28;20211;-79
2022/07/05 06:37:58;;;;;;;6.63;4.55;;;;;23.40;102090.00;;;;5034137;28;20196;-78
2022/07/05 06:40:27;;;;;;;6.80;4.85;;;;;23.50;102081.00;;;;5033990;28;20199;-79
2022/07/05 06:42:56;;;;;;;4.28;3.83;;;;;23.60;102099.00;;;;5036470;28;20575;-79
2022/07/05 06:45:24;;;;;;;7.38;4.78;;;;;23.60;102099.00;;;;5030619;28;20202;-79
2022/07/05 06:48:00;;;;;;;6.15;4.20;;;;;23.70;102094.00;;;;5029304;28;20207;-79
2022/07/05 06:50:29;;;;;;;4.85;3.95;;;;;23.80;102105.00;;;;5048413;28;20673;-78
2022/07/05 06:52:56;;;;;;;7.00;4.55;;;;;23.90;102100.00;;;;5036435;28;20970;-79
2022/07/05 06:55:24;;;;;;;5.07;4.25;;;;;23.90;102103.00;;;;5028923;28;20303;-79
2022/07/05 06:57:59;;;;;;;4.20;3.80;;;;;23.90;102106.00;;;;5029893;28;20204;-80
2022/07/05 07:00:27;;;;;;;4.05;3.70;;;;;24.00;102106.00;;;;5030852;28;20226;-79
2022/07/05 07:02:54;;;;;;;7.32;4.43;;;;;24.10;102108.00;;;;5031336;28;20203;-80
2022/07/05 07:05:23;;;;;;;4.63;4.10;;;;;24.10;102111.00;;;;5037588;28;20201;-79
2022/07/05 07:10:36;;;;;;;3.83;3.50;;;;;24.20;102110.00;;;;5033890;28;20199;-80
2022/07/05 07:13:04;;;;;;;4.57;4.03;;;;;24.30;102113.00;;;;5039334;28;20243;-80
2022/07/05 07:15:33;;;;;;;5.07;3.75;;;;;24.30;102113.00;;;;5034838;28;20204;-80
2022/07/05 07:18:00;;;;;;;3.75;3.42;;;;;24.40;102108.00;;;;5033421;28;20193;-80
2022/07/05 07:20:29;;;;;;;4.03;3.63;;;;;24.40;102110.00;;;;5030863;28;20208;-81
2022/07/05 07:22:56;;;;;;;6.85;3.63;;;;;24.50;102103.00;;;;5030801;28;20204;-81
2022/07/05 07:25:24;;;;;;;3.33;2.85;;;;;24.50;102107.00;;;;5031431;28;20200;-82
2022/07/05 07:27:53;;;;;;;4.82;3.20;;;;;24.50;102115.00;;;;5029891;28;20210;-80
2022/07/05 07:30:23;;;;;;;5.53;3.30;;;;;24.50;102111.00;;;;5030697;28;20200;-80
2022/07/05 07:32:51;;;;;;;3.45;3.13;;;;;24.60;102112.00;;;;5039187;28;20223;-79
2022/07/05 07:35:18;;;;;;;3.35;3.05;;;;;24.60;102116.00;;;;5040552;28;20214;-80
2022/07/05 07:37:47;;;;;;;5.80;3.70;;;;;24.70;102112.00;;;;5033449;28;20207;-80
2022/07/05 07:40:15;;;;;;;3.38;3.08;;;;;24.80;102115.00;;;;5035865;28;20196;-80
2022/07/05 07:42:43;;;;;;;3.28;2.83;;;;;24.80;102113.00;;;;5031768;28;20227;-80
2022/07/05 07:45:12;;;;;;;3.65;3.20;;;;;24.90;102117.00;;;;5037697;28;20192;-79
2022/07/05 07:47:39;;;;;;;3.38;3.05;;;;;24.90;102120.00;;;;5030250;28;20204;-80
2022/07/05 07:50:07;;;;;;;11.38;3.90;;;;;25.00;102126.00;;;;5034531;28;20647;-80
2022/07/05 07:52:36;;;;;;;4.10;3.22;;;;;25.00;102125.00;;;;5028506;28;20231;-80
2022/07/05 07:55:06;;;;;;;4.78;3.92;;;;;25.10;102134.00;;;;5034981;28;21034;-80
2022/07/05 07:57:33;;;;;;;5.20;3.22;;;;;25.10;102132.00;;;;5032885;28;20216;-80
2022/07/05 08:00:01;;;;;;;3.72;2.72;;;;;25.20;102133.00;;;;5036084;28;20200;-79
2022/07/05 08:02:28;;;;;;;5.70;3.28;;;;;25.20;102141.00;;;;5033587;28;20191;-81
2022/07/05 08:04:57;;;;;;;3.75;3.28;;;;;25.30;102138.00;;;;5035272;28;20199;-80
2022/07/05 08:07:25;;;;;;;4.40;3.22;;;;;25.30;102139.00;;;;5032257;28;20675;-81
2022/07/05 08:09:53;;;;;;;4.10;2.72;;;;;25.30;102134.00;;;;5034588;28;20206;-79
2022/07/05 08:12:22;;;;;;;2.97;2.67;;;;;25.30;102142.00;;;;5033462;28;20249;-79
2022/07/05 08:14:49;;;;;;;4.55;2.45;;;;;25.40;102140.00;;;;5037835;28;20215;-80
2022/07/05 08:17:16;;;;;;;4.03;2.88;;;;;25.40;102144.00;;;;5035905;28;20192;-80
2022/07/05 08:22:31;;;;;;;3.22;2.92;;;;;25.40;102148.00;;;;5011804;28;20207;-80
2022/07/05 08:24:59;;;;;;;3.20;2.90;;;;;25.40;102147.00;;;;5040674;28;20204;-81
2022/07/05 08:27:27;;;;;;;3.60;2.97;;;;;25.50;102143.00;;;;5029918;28;20203;-79
2022/07/05 08:29:55;;;;;;;2.88;2.45;;;;;25.50;102137.00;;;;5036504;28;20200;-80
2022/07/05 08:32:22;;;;;;;1.80;1.20;;;;;25.60;102136.00;;;;5034743;28;20220;-79
2022/07/05 08:34:49;;;;;;;1.60;0.98;;;;;25.70;102140.00;;;;5033878;28;20216;-80
2022/07/05 08:37:17;;;;;;;1.95;1.25;;;;;25.90;102140.00;;;;5034232;28;21013;-80
2022/07/05 08:39:44;;;;;;;3.55;1.60;;;;;26.00;102139.00;;;;5034120;28;20203;-80
2022/07/05 08:42:12;;;;;;;2.55;1.40;;;;;26.10;102129.00;;;;5027963;28;20659;-80
2022/07/05 08:44:44;;;;;;;1.40;1.30;;;;;26.20;102130.00;;;;5034566;28;20597;-79
2022/07/05 08:47:13;;;;;;;2.35;1.65;;;;;26.40;102131.00;;;;5036914;28;20203;-81
2022/07/05 08:49:41;;;;;;;2.42;1.65;;;;;26.60;102132.00;;;;5034106;28;20327;-81
2022/07/05 08:52:12;;;;;;;4.40;1.42;;;;;26.70;102130.00;;;;5037639;28;20224;-82
2022/07/05 08:54:40;;;;;;;1.25;1.13;;;;;26.90;102133.00;;;;5031168;28;20236;-82
2022/07/05 08:57:07;;;;;;;1.88;1.40;;;;;27.00;102133.00;;;;5034655;28;20208;-81
2022/07/05 08:59:34;;;;;;;3.33;1.40;;;;;27.10;102132.00;;;;5029974;28;20605;-81
2022/07/05 09:02:04;;;;;;;2.25;1.55;;;;;27.20;102122.00;;;;5033994;28;20203;-79
2022/07/05 09:04:37;;;;;;;5.70;1.45;;;;;27.40;102134.00;;;;5043154;28;20595;-79
2022/07/05 09:07:07;;;;;;;3.90;1.52;;;;;27.50;102132.00;;;;5040231;28;20750;-79
2022/07/05 09:09:37;;;;;;;1.88;1.27;;;;;27.60;102131.00;;;;5038810;28;20273;-79
2022/07/05 09:12:05;;;;;;;1.50;1.40;;;;;27.80;102140.00;;;;5036406;28;20910;-80
2022/07/05 09:14:33;;;;;;;1.98;1.00;;;;;27.90;102143.00;;;;5049322;28;20207;-78
2022/07/05 09:17:02;;;;;;;1.67;1.25;;;;;28.10;102135.00;;;;5044794;28;20212;-79
2022/07/05 09:19:30;;;;;;;3.42;1.30;;;;;28.10;102130.00;;;;5039942;28;20193;-79
2022/07/05 09:22:03;;;;;;;1.98;0.75;;;;;28.20;102144.00;;;;5036693;28;20205;-79
2022/07/05 09:24:31;;;;;;;1.35;1.02;;;;;28.30;102141.00;;;;5028900;28;20200;-79
2022/07/05 09:27:08;;;;;;;1.67;1.23;;;;;28.20;102147.00;;;;5037597;28;20282;-79
2022/07/05 09:29:35;;;;;;;1.70;0.90;;;;;28.30;102151.00;;;;5032636;28;20199;-80
2022/07/05 09:32:05;;;;;;;2.53;0.80;;;;;28.30;102149.00;;;;5031156;28;20235;-79
2022/07/05 09:34:34;;;;;;;1.40;1.30;;;;;28.30;102152.00;;;;5034201;28;20217;-79
2022/07/05 09:37:04;;;;;;;1.17;1.02;;;;;28.30;102149.00;;;;5034958;28;20195;-80
2022/07/05 09:39:39;;;;;;;1.17;1.00;;;;;28.20;102145.00;;;;5033751;28;20196;-80
2022/07/05 09:42:22;;;;;;;1.80;0.90;;;;;28.10;102141.00;;;;5030348;28;20203;-80
2022/07/05 09:44:51;;;;;;;1.65;0.93;;;;;28.30;102147.00;;;;5028645;28;20207;-80
2022/07/05 09:47:21;;;;;;;2.00;1.00;;;;;28.30;102140.00;;;;5038597;28;20208;-79
2022/07/05 09:49:50;;;;;;;2.17;1.20;;;;;28.30;102140.00;;;;5029380;28;20222;-79
2022/07/05 09:52:29;;;;;;;1.38;1.00;;;;;28.20;102149.00;;;;5030101;28;20245;-79
2022/07/05 09:55:07;;;;;;;1.60;0.80;;;;;28.10;102149.00;;;;5041685;28;20523;-79
2022/07/05 09:57:35;;;;;;;1.95;0.80;;;;;28.10;102149.00;;;;5029918;28;20847;-79
2022/07/05 10:00:06;;;;;;;1.52;0.80;;;;;28.00;102160.00;;;;5035213;28;20225;-79
2022/07/05 10:02:40;;;;;;;0.85;0.73;;;;;27.90;102154.00;;;;5040553;28;20203;-80
2022/07/05 10:05:12;;;;;;;2.95;1.10;;;;;27.80;102160.00;;;;5033555;28;20200;-80
2022/07/05 10:07:42;;;;;;;2.95;0.65;;;;;27.70;102162.00;;;;5029045;28;20204;-79
2022/07/05 10:10:11;;;;;;;0.85;0.60;;;;;27.60;102161.00;;;;5029209;28;20581;-80
2022/07/05 10:12:40;;;;;;;0.88;0.57;;;;;27.60;102156.00;;;;5034519;28;20714;-80
2022/07/05 10:15:10;;;;;;;0.95;0.65;;;;;27.60;102150.00;;;;5044990;28;20212;-79
2022/07/05 10:17:45;;;;;;;0.80;0.40;;;;;27.60;102151.00;;;;5028633;28;20204;-79
2022/07/05 10:20:18;;;;;;;0.82;0.50;;;;;27.80;102154.00;;;;5029399;28;20204;-82
2022/07/05 10:22:46;;;;;;;0.98;0.55;;;;;27.90;102145.00;;;;5031499;28;20690;-80
2022/07/05 10:25:15;;;;;;;0.93;0.68;;;;;28.00;102153.00;;;;5028184;28;20189;-81
2022/07/05 10:27:43;;;;;;;2.42;0.70;;;;;28.00;102154.00;;;;5029107;28;20204;-80
2022/07/05 10:30:12;;;;;;;0.70;0.60;;;;;28.00;102147.00;;;;5032197;28;20207;-79
2022/07/05 10:32:42;;;;;;;0.98;0.60;;;;;28.00;102148.00;;;;5034675;28;20693;-80
2022/07/05 10:35:10;;;;;;;0.60;0.40;;;;;28.10;102146.00;;;;5049016;28;20223;-79
2022/07/05 10:37:37;;;;;;;0.35;0.35;;;;;28.10;102146.00;;;;5029499;28;20208;-79
2022/07/05 10:40:07;;;;;;;0.93;0.40;;;;;28.20;102152.00;;;;5046201;28;20195;-79
2022/07/05 10:42:40;;;;;;;1.23;0.50;;;;;28.30;102148.00;;;;5037086;28;20210;-80
2022/07/05 10:45:32;;;;;;;0.82;0.50;;;;;28.40;102148.00;;;;5045079;28;20211;-79
2022/07/05 10:48:18;;;;;;;1.88;0.50;;;;;28.50;102154.00;;;;5029001;28;20233;-79
2022/07/05 10:50:51;;;;;;;1.42;0.60;;;;;28.70;102152.00;;;;5037005;28;20214;-80
2022/07/05 10:53:20;;;;;;;0.65;0.50;;;;;28.80;102164.00;;;;5028894;28;20220;-80
2022/07/05 10:55:59;;;;;;;0.60;0.57;;;;;28.70;102159.00;;;;5038182;28;20665;-79
2022/07/05 10:58:33;;;;;;;0.85;0.50;;;;;28.80;102160.00;;;;5032052;28;20214;-79
2022/07/05 11:01:32;;;;;;;1.17;0.50;;;;;28.60;102163.00;;;;5028057;28;20338;-79
2022/07/05 11:04:20;;;;;;;1.50;0.43;;;;;28.50;102169.00;;;;5027944;28;20208;-79
2022/07/05 11:06:49;;;;;;;1.00;0.50;;;;;28.50;102168.00;;;;5035562;28;20219;-80
2022/07/05 11:09:18;;;;;;;1.38;0.55;;;;;28.40;102168.00;;;;5033174;28;20199;-80
2022/07/05 11:11:47;;;;;;;1.90;0.40;;;;;28.30;102167.00;;;;5028485;28;20209;-80
2022/07/05 11:14:35;;;;;;;1.38;0.50;;;;;28.10;102171.00;;;;5031843;28;20647;-79
2022/07/05 11:17:15;;;;;;;2.20;0.45;;;;;28.10;102170.00;;;;5026328;28;20723;-79
2022/07/05 11:20:05;;;;;;;0.70;0.40;;;;;28.00;102163.00;;;;5027978;28;20200;-79
2022/07/05 11:22:33;;;;;;;1.88;0.68;;;;;28.10;102165.00;;;;5022857;28;20207;-79
2022/07/05 11:25:02;;;;;;;1.90;0.50;;;;;28.10;102164.00;;;;5034292;28;20213;-79
2022/07/05 11:27:31;;;;;;;1.48;0.80;;;;;28.10;102170.00;;;;5031856;28;20233;-79
2022/07/05 11:29:59;;;;;;;0.60;0.43;;;;;28.10;102174.00;;;;5032362;28;20210;-80
2022/07/05 11:32:38;;;;;;;1.25;0.65;;;;;27.90;102173.00;;;;5032082;28;20216;-79
2022/07/05 11:35:17;;;;;;;1.40;0.73;;;;;27.80;102172.00;;;;5033415;28;20680;-80
2022/07/05 11:38:00;;;;;;;0.73;0.50;;;;;27.60;102168.00;;;;5035715;28;20199;-79
2022/07/05 11:40:33;;;;;;;0.75;0.45;;;;;27.70;102167.00;;;;5030388;28;20624;-80
2022/07/05 11:43:02;;;;;;;1.75;0.60;;;;;27.70;102163.00;;;;5031243;28;20207;-80
2022/07/05 11:45:31;;;;;;;1.05;0.70;;;;;27.70;102161.00;;;;5032273;28;20232;-79
2022/07/05 11:47:59;;;;;;;1.67;0.80;;;;;27.70;102157.00;;;;5034234;28;20197;-78
2022/07/05 11:50:32;;;;;;;1.00;0.40;;;;;27.60;102154.00;;;;5036523;28;20203;-78
2022/07/05 11:53:00;;;;;;;1.05;0.70;;;;;27.60;102165.00;;;;5036221;28;20987;-78
2022/07/05 11:55:29;;;;;;;1.88;0.55;;;;;27.60;102157.00;;;;5039067;28;20285;-78
2022/07/05 11:57:58;;;;;;;0.90;0.40;;;;;27.60;102164.00;;;;5034750;28;20584;-78
2022/07/05 12:00:30;;;;;;;1.92;0.50;;;;;27.70;102170.00;;;;5038724;28;20283;-79
2022/07/05 12:02:58;;;;;;;1.55;0.57;;;;;27.70;102168.00;;;;5038342;28;20200;-78
2022/07/05 12:05:32;;;;;;;2.35;0.50;;;;;27.60;102159.00;;;;5041464;28;20294;-78
2022/07/05 12:08:00;;;;;;;0.80;0.50;;;;;27.70;102161.00;;;;5039013;28;20191;-79
2022/07/05 12:13:12;;;;;;;1.48;0.50;;;;;27.60;102167.00;;;;5034761;28;20281;-78
2022/07/05 12:15:40;;;;;;;0.90;0.45;;;;;27.60;102170.00;;;;5039214;28;20965;-78
2022/07/05 12:18:11;;;;;;;1.67;0.63;;;;;27.70;102170.00;;;;5038084;28;20200;-78
2022/07/05 12:20:41;;;;;;;1.17;0.50;;;;;27.70;102162.00;;;;5036396;28;20200;-77
2022/07/05 12:23:08;;;;;;;1.60;0.32;;;;;27.80;102175.00;;;;5041516;28;20203;-78
2022/07/05 12:25:36;;;;;;;1.55;0.50;;;;;27.80;102161.00;;;;5041940;28;20188;-78